createdAt,value
2019-04-23T00:02:29.774Z,42.81
2019-04-23T00:05:02.121Z,42.68
2019-04-23T00:07:44.339Z,42.75
2019-04-23T00:10:12.641Z,42.85
2019-04-23T00:12:43.830Z,42.84
2019-04-23T00:15:07.515Z,43.06
2019-04-23T00:17:37.119Z,43.01
2019-04-23T00:20:12.079Z,42.99
2019-04-23T00:22:44.477Z,43.12
2019-04-23T00:25:38.085Z,43.16
2019-04-23T00:27:42.811Z,43.31
2019-04-23T00:30:10.063Z,43.39
2019-04-23T00:32:39.740Z,43.50
2019-04-23T00:35:16.047Z,43.56
2019-04-23T00:37:49.564Z,43.70
2019-04-23T00:40:15.387Z,43.71
2019-04-23T00:45:16.766Z,43.84
2019-04-23T00:47:46.114Z,43.88
2019-04-23T00:52:45.657Z,44.15
2019-04-23T00:55:14.482Z,44.23
2019-04-23T00:57:43.546Z,44.45
2019-04-23T01:00:19.306Z,44.40
2019-04-23T01:02:49.316Z,44.55
2019-04-23T01:05:20.297Z,44.66
2019-04-23T01:07:48.318Z,44.70
2019-04-23T01:10:25.615Z,44.84
2019-04-23T01:15:18.931Z,44.98
2019-04-23T01:20:22.620Z,45.25
2019-04-23T01:22:31.580Z,45.25
2019-04-23T01:25:13.401Z,45.55
2019-04-23T01:28:02.129Z,45.46
2019-04-23T01:30:34.121Z,45.62
2019-04-23T01:33:03.645Z,45.98
2019-04-23T01:35:39.609Z,45.79
2019-04-23T01:38:04.488Z,45.89
2019-04-23T01:40:39.365Z,45.94
2019-04-23T01:43:02.780Z,46.02
2019-04-23T01:45:29.677Z,46.13
2019-04-23T01:48:18.502Z,46.17
2019-04-23T01:50:43.793Z,46.26
2019-04-23T01:53:14.352Z,46.42
2019-04-23T01:58:27.568Z,46.54
2019-04-23T02:00:40.685Z,46.69
2019-04-23T02:03:13.123Z,46.66
2019-04-23T02:05:43.222Z,46.86
2019-04-23T02:08:08.414Z,46.93
2019-04-23T02:10:49.026Z,47.00
2019-04-23T02:13:17.482Z,47.17
2019-04-23T02:15:46.210Z,47.16
2019-04-23T02:18:11.751Z,47.26
2019-04-23T02:20:44.394Z,47.25
2019-04-23T02:23:34.211Z,47.30
2019-04-23T02:28:19.024Z,47.36
2019-04-23T02:31:12.148Z,47.41
2019-04-23T02:41:04.390Z,47.71
2019-04-23T02:43:16.067Z,47.80
2019-04-23T02:46:04.553Z,47.86
2019-04-23T02:48:24.883Z,47.92
2019-04-23T02:50:48.876Z,48.04
2019-04-23T02:53:44.754Z,48.22
2019-04-23T02:58:28.247Z,48.17
2019-04-23T03:03:38.648Z,48.18
2019-04-23T03:05:57.425Z,48.17
2019-04-23T03:08:26.790Z,48.15
2019-04-23T03:13:37.640Z,48.11
2019-04-23T03:21:31.204Z,48.19
2019-04-23T03:24:09.330Z,48.42
2019-04-23T03:35:43.131Z,48.76
2019-04-23T03:36:13.946Z,48.88
2019-04-23T03:38:55.532Z,48.94
2019-04-23T03:43:57.783Z,48.81
2019-04-23T03:46:46.679Z,48.76
2019-04-23T03:49:16.888Z,48.80
2019-04-23T03:51:38.270Z,48.95
2019-04-23T03:57:00.944Z,49.32
2019-04-23T04:09:18.709Z,49.17
2019-04-23T04:11:33.740Z,49.20
2019-04-23T04:14:15.247Z,49.32
2019-04-23T04:16:34.221Z,49.38
2019-04-23T04:19:08.922Z,49.49
2019-04-23T04:21:36.916Z,49.66
2019-04-23T04:24:17.287Z,49.57
2019-04-23T04:29:21.493Z,49.63
2019-04-23T04:31:42.361Z,49.76
2019-04-23T04:34:21.443Z,49.74
2019-04-23T04:36:46.001Z,49.87
2019-04-23T04:39:19.747Z,49.92
2019-04-23T04:41:31.219Z,50.02
2019-04-23T04:44:20.346Z,50.09
2019-04-23T04:51:41.843Z,50.29
2019-04-23T04:54:10.080Z,50.41
2019-04-23T04:59:06.099Z,50.42
2019-04-23T05:01:31.358Z,50.58
2019-04-23T05:04:00.087Z,50.22
2019-04-23T05:09:11.985Z,50.27
2019-04-23T05:11:44.033Z,50.24
2019-04-23T05:14:00.382Z,50.48
2019-04-23T05:24:01.408Z,50.37
2019-04-23T05:29:06.312Z,50.60
2019-04-23T05:36:30.866Z,50.19
2019-04-23T05:41:29.511Z,50.38
2019-04-23T05:44:05.091Z,50.55
2019-04-23T05:46:32.824Z,50.37
2019-04-23T05:49:04.562Z,50.45
2019-04-23T05:51:38.781Z,50.30
2019-04-23T05:54:01.297Z,50.34
2019-04-23T05:56:27.760Z,50.30
2019-04-23T06:04:10.453Z,50.12
2019-04-23T06:06:54.172Z,49.96
2019-04-23T06:09:09.115Z,49.95
2019-04-23T06:11:45.068Z,49.79
2019-04-23T06:14:06.429Z,49.68
2019-04-23T06:16:35.669Z,49.31
2019-04-23T06:19:11.091Z,49.64
2019-04-23T06:24:09.988Z,49.97
2019-04-23T06:29:11.226Z,49.25
2019-04-23T06:31:39.319Z,49.19
2019-04-23T06:34:03.832Z,49.44
2019-04-23T06:36:32.429Z,49.53
2019-04-23T06:41:41.830Z,49.32
2019-04-23T06:44:18.093Z,49.27
2019-04-23T06:46:39.234Z,49.43
2019-04-23T06:49:10.617Z,49.12
2019-04-23T06:51:48.012Z,49.02
2019-04-23T06:54:04.425Z,49.21
2019-04-23T06:56:43.269Z,48.91
2019-04-23T06:59:09.631Z,48.92
2019-04-23T07:01:36.567Z,49.13
2019-04-23T07:04:05.561Z,48.93
2019-04-23T07:06:58.290Z,49.07
2019-04-23T07:11:34.223Z,48.31
2019-04-23T07:13:58.779Z,48.44
2019-04-23T07:16:32.908Z,48.71
2019-04-23T07:19:12.680Z,47.94
2019-04-23T07:21:42.028Z,48.15
2019-04-23T07:24:05.479Z,48.26
2019-04-23T07:26:41.079Z,48.45
2019-04-23T07:29:21.380Z,48.73
2019-04-23T07:31:37.933Z,48.86
2019-04-23T07:36:34.195Z,48.11
2019-04-23T07:42:02.911Z,47.90
2019-04-23T07:44:45.180Z,48.13
2019-04-23T07:47:19.006Z,48.67
2019-04-23T07:49:38.479Z,48.24
2019-04-23T07:52:24.202Z,48.58
2019-04-23T07:54:39.864Z,47.90
2019-04-23T07:57:15.325Z,48.50
2019-04-23T07:59:47.351Z,47.86
2019-04-23T08:02:15.986Z,48.04
2019-04-23T08:04:47.619Z,48.25
2019-04-23T08:07:12.834Z,48.36
2019-04-23T08:09:43.607Z,48.35
2019-04-23T08:12:11.613Z,48.09
2019-04-23T08:14:42.664Z,48.03
2019-04-23T08:17:07.104Z,48.06
2019-04-23T08:19:41.000Z,48.30
2019-04-23T08:24:59.207Z,48.09
2019-04-23T08:27:34.662Z,48.34
2019-04-23T08:30:07.558Z,48.54
2019-04-23T08:32:35.173Z,48.33
2019-04-23T08:35:06.405Z,48.27
2019-04-23T08:37:56.994Z,48.30
2019-04-23T08:40:12.021Z,48.29
2019-04-23T08:43:34.845Z,48.28
2019-04-23T08:48:15.490Z,47.64
2019-04-23T08:53:17.741Z,47.09
2019-04-23T08:55:38.463Z,47.08
2019-04-23T08:58:06.017Z,46.37
2019-04-23T09:00:49.858Z,46.35
2019-04-23T09:03:12.865Z,46.72
2019-04-23T09:10:42.293Z,46.31
2019-04-23T09:13:35.018Z,46.40
2019-04-23T09:18:12.669Z,46.49
2019-04-23T09:20:32.740Z,46.48
2019-04-23T09:23:16.283Z,47.01
2019-04-23T09:25:49.778Z,45.58
2019-04-23T09:28:24.139Z,44.61
2019-04-23T09:30:48.756Z,45.81
2019-04-23T09:33:27.901Z,45.56
2019-04-23T09:36:18.486Z,44.62
2019-04-23T09:38:39.666Z,45.30
2019-04-23T09:41:37.854Z,43.90
2019-04-23T09:44:25.932Z,43.56
2019-04-23T09:46:49.601Z,43.33
2019-04-23T09:49:14.808Z,43.27
2019-04-23T09:51:49.285Z,43.67
2019-04-23T09:54:09.797Z,43.82
2019-04-23T09:56:42.319Z,43.42
2019-04-23T09:59:17.506Z,43.14
2019-04-23T10:01:32.787Z,43.02
2019-04-23T10:03:56.863Z,43.03
2019-04-23T10:06:20.288Z,43.84
2019-04-23T10:08:47.508Z,44.16
2019-04-23T10:11:13.608Z,43.44
2019-04-23T10:13:42.801Z,42.70
2019-04-23T10:16:15.364Z,43.15
2019-04-23T10:18:41.519Z,42.56
2019-04-23T10:21:11.088Z,42.43
2019-04-23T10:23:41.140Z,41.87
2019-04-23T10:26:10.073Z,43.13
2019-04-23T10:28:56.135Z,42.49
2019-04-23T10:31:25.141Z,41.86
2019-04-23T10:33:53.464Z,41.54
2019-04-23T10:36:27.184Z,41.78
2019-04-23T10:39:00.579Z,42.27
2019-04-23T10:41:22.506Z,41.88
2019-04-23T10:43:56.171Z,41.87
2019-04-23T10:47:03.004Z,42.41
2019-04-23T10:49:53.616Z,42.50
2019-04-23T10:54:40.888Z,42.27
2019-04-23T10:57:11.032Z,42.13
2019-04-23T11:07:28.387Z,41.57
2019-04-23T11:09:59.580Z,40.63
2019-04-23T11:12:46.408Z,41.53
2019-04-23T11:17:46.520Z,40.76
2019-04-23T11:25:29.954Z,40.57
2019-04-23T11:27:42.482Z,41.23
2019-04-23T11:30:29.345Z,41.20
2019-04-23T11:35:22.716Z,41.13
2019-04-23T11:38:22.143Z,40.74
2019-04-23T11:40:23.286Z,40.25
2019-04-23T11:42:49.465Z,41.54
2019-04-23T11:45:30.584Z,40.58
2019-04-23T11:48:22.112Z,40.13
2019-04-23T11:50:41.298Z,40.01
2019-04-23T11:52:51.574Z,39.80
2019-04-23T11:58:02.709Z,41.04
2019-04-23T12:02:51.320Z,39.34
2019-04-23T12:05:29.538Z,39.75
2019-04-23T12:08:20.594Z,39.49
2019-04-23T12:12:55.661Z,38.91
2019-04-23T12:15:37.580Z,39.73
2019-04-23T12:20:33.194Z,38.00
2019-04-23T12:23:08.946Z,38.31
2019-04-23T12:27:44.090Z,38.31
2019-04-23T12:30:34.230Z,38.54
2019-04-23T12:33:12.981Z,37.70
2019-04-23T12:35:22.538Z,37.31
2019-04-23T12:37:56.167Z,37.04
2019-04-23T12:40:25.175Z,37.25
2019-04-23T12:45:35.509Z,38.06
2019-04-23T12:48:02.148Z,37.28
2019-04-23T12:55:39.069Z,36.77
2019-04-23T13:00:36.915Z,36.23
2019-04-23T13:02:58.718Z,36.30
2019-04-23T13:05:27.029Z,36.26
2019-04-23T13:07:58.522Z,36.49
2019-04-23T13:10:44.076Z,36.26
2019-04-23T13:15:29.330Z,36.23
2019-04-23T13:18:03.017Z,35.89
2019-04-23T13:20:27.650Z,36.43
2019-04-23T13:23:01.529Z,35.60
2019-04-23T13:25:39.837Z,34.83
2019-04-23T13:30:46.196Z,36.16
2019-04-23T13:33:26.713Z,34.28
2019-04-23T13:38:17.406Z,35.48
2019-04-23T13:41:01.236Z,36.21
2019-04-23T13:43:19.501Z,35.82
2019-04-23T13:45:58.896Z,34.85
2019-04-23T13:48:10.756Z,34.58
2019-04-23T13:50:50.065Z,34.72
2019-04-23T13:53:28.768Z,35.03
2019-04-23T13:55:42.543Z,33.89
2019-04-23T13:58:32.868Z,34.08
2019-04-23T14:00:52.574Z,33.79
2019-04-23T14:03:19.768Z,33.68
2019-04-23T14:06:00.971Z,31.94
2019-04-23T14:08:41.579Z,32.80
2019-04-23T14:10:55.425Z,32.80
2019-04-23T14:13:51.612Z,32.61
2019-04-23T14:16:05.527Z,31.72
2019-04-23T14:21:08.642Z,31.57
2019-04-23T14:26:15.927Z,30.79
2019-04-23T14:28:37.394Z,30.25
2019-04-23T14:36:02.843Z,30.47
2019-04-23T14:41:09.936Z,31.02
2019-04-23T14:43:44.800Z,29.36
2019-04-23T14:48:47.965Z,28.95
2019-04-23T14:53:53.238Z,29.35
2019-04-23T14:56:26.379Z,29.11
2019-04-23T14:58:50.826Z,29.11
2019-04-23T15:01:27.224Z,28.94
2019-04-23T15:06:23.875Z,28.99
2019-04-23T15:08:50.121Z,29.58
2019-04-23T15:13:46.567Z,29.24
2019-04-23T15:16:17.395Z,29.21
2019-04-23T15:19:02.683Z,28.55
2019-04-23T15:24:00.210Z,29.32
2019-04-23T15:28:29.961Z,28.73
2019-04-23T15:41:29.458Z,29.95
2019-04-23T15:43:57.721Z,29.40
2019-04-23T15:46:25.200Z,29.95
2019-04-23T15:49:05.608Z,29.79
2019-04-23T15:51:28.567Z,29.57
2019-04-23T15:53:51.702Z,29.93
2019-04-23T15:56:26.830Z,30.35
2019-04-23T15:59:04.334Z,30.49
2019-04-23T16:01:31.904Z,30.75
2019-04-23T16:03:24.476Z,31.10
2019-04-23T16:05:53.051Z,31.06
2019-04-23T16:08:59.375Z,31.17
2019-04-23T16:11:36.464Z,32.14
2019-04-23T16:14:13.423Z,31.54
2019-04-23T16:16:28.181Z,31.63
2019-04-23T16:21:30.240Z,32.43
2019-04-23T16:23:52.637Z,32.51
2019-04-23T16:26:31.276Z,32.88
2019-04-23T16:29:21.159Z,33.91
2019-04-23T16:31:29.475Z,33.33
2019-04-23T16:34:08.623Z,33.33
2019-04-23T16:36:23.116Z,33.79
2019-04-23T16:39:01.978Z,33.84
2019-04-23T16:41:48.440Z,34.04
2019-04-23T16:46:27.257Z,34.44
2019-04-23T16:49:06.785Z,34.58
2019-04-23T16:51:29.565Z,35.57
2019-04-23T16:54:03.083Z,34.54
2019-04-23T16:59:08.465Z,35.41
2019-04-23T17:01:28.001Z,36.35
2019-04-23T17:04:03.848Z,35.92
2019-04-23T17:06:30.941Z,36.49
2019-04-23T17:08:57.108Z,36.18
2019-04-23T17:11:26.971Z,36.35
2019-04-23T17:14:07.039Z,36.49
2019-04-23T17:19:01.976Z,36.69
2019-04-23T17:21:32.631Z,37.20
2019-04-23T17:24:08.112Z,37.38
2019-04-23T17:26:29.063Z,37.61
2019-04-23T17:31:35.245Z,37.53
2019-04-23T17:36:45.847Z,37.74
2019-04-23T17:39:25.426Z,37.88
2019-04-23T17:42:00.132Z,38.01
2019-04-23T17:44:24.502Z,37.94
2019-04-23T17:46:51.007Z,38.10
2019-04-23T17:49:15.591Z,38.53
2019-04-23T17:51:53.024Z,38.31
2019-04-23T17:54:32.210Z,38.79
2019-04-23T17:59:23.001Z,38.49
2019-04-23T18:02:10.322Z,38.33
2019-04-23T18:06:53.861Z,38.97
2019-04-23T18:12:12.951Z,39.00
2019-04-23T18:14:16.476Z,39.15
2019-04-23T18:17:10.816Z,39.34
2019-04-23T18:19:20.696Z,39.63
2019-04-23T18:22:19.074Z,39.84
2019-04-23T18:24:59.078Z,40.10
2019-04-23T18:27:23.526Z,40.26
2019-04-23T18:30:01.009Z,41.19
2019-04-23T18:32:58.360Z,41.33
2019-04-23T18:37:32.535Z,42.15
2019-04-23T18:39:52.055Z,42.73
2019-04-23T18:42:31.772Z,43.14
2019-04-23T18:45:03.257Z,43.88
2019-04-23T18:47:40.193Z,43.33
2019-04-23T18:50:21.953Z,43.82
2019-04-23T18:54:56.958Z,44.45
2019-04-23T18:57:36.775Z,44.74
2019-04-23T19:00:18.836Z,44.88
2019-04-23T19:07:51.925Z,47.79
2019-04-23T19:18:12.917Z,48.24
2019-04-23T19:20:46.441Z,48.11
2019-04-23T19:25:25.938Z,48.95
2019-04-23T19:28:09.924Z,49.76
2019-04-23T19:30:46.127Z,49.07
2019-04-23T19:33:13.685Z,49.18
2019-04-23T19:36:01.399Z,49.01
2019-04-23T19:38:13.274Z,48.89
2019-04-23T19:40:49.379Z,49.73
2019-04-23T19:43:12.120Z,49.35
2019-04-23T19:50:48.989Z,50.38
2019-04-23T19:56:08.883Z,50.24
2019-04-23T19:58:38.419Z,50.52
2019-04-23T20:03:37.545Z,51.84
2019-04-23T20:06:06.340Z,51.96
2019-04-23T20:08:49.381Z,50.47
2019-04-23T20:11:04.839Z,50.79
2019-04-23T20:13:41.117Z,53.45
2019-04-23T20:18:41.545Z,52.67
2019-04-23T20:20:58.946Z,52.30
2019-04-23T20:24:02.974Z,53.05
2019-04-23T20:26:15.639Z,54.90
2019-04-23T20:32:25.794Z,53.36
2019-04-23T20:36:25.830Z,52.89
2019-04-23T20:39:03.859Z,52.61
2019-04-23T20:41:21.773Z,53.42
2019-04-23T20:44:01.419Z,53.16
2019-04-23T20:46:26.179Z,52.77
2019-04-23T20:48:56.947Z,55.06
2019-04-23T20:51:16.207Z,53.96
2019-04-23T20:53:57.305Z,55.07
2019-04-23T20:56:30.096Z,54.31
2019-04-23T20:58:54.703Z,54.30
2019-04-23T21:06:47.002Z,54.94
2019-04-23T21:11:29.223Z,55.58
2019-04-23T21:14:22.824Z,55.41
2019-04-23T21:16:26.103Z,55.49
2019-04-23T21:21:27.863Z,55.04
2019-04-23T21:26:17.523Z,55.09
2019-04-23T21:28:54.260Z,55.55
2019-04-23T21:36:40.408Z,56.29
2019-04-23T21:39:29.207Z,56.21
2019-04-23T21:44:21.093Z,56.15
2019-04-23T21:46:56.619Z,56.29
2019-04-23T21:54:30.723Z,57.41
2019-04-23T21:56:55.441Z,58.20
2019-04-23T21:59:24.948Z,58.69
2019-04-23T22:01:56.820Z,59.26
2019-04-23T22:06:52.758Z,56.54
2019-04-23T22:09:27.114Z,57.30
2019-04-23T22:14:27.004Z,57.12
2019-04-23T22:19:19.764Z,57.59
2019-04-23T22:24:19.411Z,57.60
2019-04-23T22:26:54.551Z,57.04
2019-04-23T22:29:33.086Z,57.89
2019-04-23T22:32:13.065Z,57.12
2019-04-23T22:34:36.925Z,57.36
2019-04-23T22:37:17.720Z,56.74
2019-04-23T22:39:31.985Z,56.62
2019-04-23T22:42:08.834Z,56.79
2019-04-23T22:44:39.590Z,57.24
2019-04-23T22:47:03.984Z,57.46
2019-04-23T22:49:45.355Z,57.64
2019-04-23T22:54:39.765Z,58.76
2019-04-23T22:57:04.710Z,60.44
2019-04-23T22:59:47.074Z,57.74
2019-04-23T23:02:08.914Z,58.29
2019-04-23T23:04:51.666Z,60.00
2019-04-23T23:07:07.697Z,59.32
2019-04-23T23:09:49.004Z,58.02
2019-04-23T23:12:13.902Z,57.82
2019-04-23T23:14:48.744Z,57.51
2019-04-23T23:22:11.741Z,58.17
2019-04-23T23:24:53.722Z,59.94
2019-04-23T23:27:05.498Z,58.67
2019-04-23T23:29:49.652Z,58.08
2019-04-23T23:32:14.609Z,60.24
2019-04-23T23:35:00.990Z,58.73
2019-04-23T23:37:12.139Z,60.03
2019-04-23T23:42:11.101Z,59.10
2019-04-23T23:47:18.159Z,60.10
2019-04-23T23:49:43.856Z,60.33
2019-04-23T23:54:43.758Z,60.03
